sensor_id;sensor_type;location;lat;lon;timestamp;P1;durP1;ratioP1;P2;durP2;ratioP2
26820;SDS011;37186;51.394;5.454;2023-06-14T00:01:40;4.60;;;4.50;;
26820;SDS011;37186;51.394;5.454;2023-06-14T00:04:41;4.80;;;4.70;;
26820;SDS011;37186;51.394;5.454;2023-06-14T00:07:41;4.60;;;4.50;;
26820;SDS011;37186;51.394;5.454;2023-06-14T00:10:42;5.00;;;4.90;;
26820;SDS011;37186;51.394;5.454;2023-06-14T00:13:42;5.40;;;5.30;;
26820;SDS011;37186;51.394;5.454;2023-06-14T00:16:43;5.35;;;5.25;;
26820;SDS011;37186;51.394;5.454;2023-06-14T00:19:44;5.65;;;5.55;;
26820;SDS011;37186;51.394;5.454;2023-06-14T00:22:45;6.13;;;5.93;;
26820;SDS011;37186;51.394;5.454;2023-06-14T00:25:46;6.30;;;6.10;;
26820;SDS011;37186;51.394;5.454;2023-06-14T00:28:47;6.50;;;6.30;;
26820;SDS011;37186;51.394;5.454;2023-06-14T00:31:47;7.00;;;6.80;;
26820;SDS011;37186;51.394;5.454;2023-06-14T00:34:48;6.88;;;6.68;;
26820;SDS011;37186;51.394;5.454;2023-06-14T00:37:48;7.57;;;7.38;;
26820;SDS011;37186;51.394;5.454;2023-06-14T00:40:49;6.95;;;6.75;;
26820;SDS011;37186;51.394;5.454;2023-06-14T00:43:50;6.72;;;6.53;;
26820;SDS011;37186;51.394;5.454;2023-06-14T00:46:51;6.60;;;6.40;;
26820;SDS011;37186;51.394;5.454;2023-06-14T00:49:53;6.35;;;6.15;;
26820;SDS011;37186;51.394;5.454;2023-06-14T00:52:54;6.10;;;5.90;;
26820;SDS011;37186;51.394;5.454;2023-06-14T00:55:56;6.78;;;6.57;;
26820;SDS011;37186;51.394;5.454;2023-06-14T00:58:56;6.30;;;6.10;;
26820;SDS011;37186;51.394;5.454;2023-06-14T01:01:58;6.28;;;6.07;;
26820;SDS011;37186;51.394;5.454;2023-06-14T01:04:58;6.30;;;6.10;;
26820;SDS011;37186;51.394;5.454;2023-06-14T01:08:11;6.45;;;6.25;;
26820;SDS011;37186;51.394;5.454;2023-06-14T01:11:32;6.28;;;6.07;;
26820;SDS011;37186;51.394;5.454;2023-06-14T01:14:45;6.00;;;5.80;;
26820;SDS011;37186;51.394;5.454;2023-06-14T01:17:48;5.60;;;5.50;;
26820;SDS011;37186;51.394;5.454;2023-06-14T01:20:51;5.38;;;5.28;;
26820;SDS011;37186;51.394;5.454;2023-06-14T01:23:55;5.32;;;5.22;;
26820;SDS011;37186;51.394;5.454;2023-06-14T01:26:55;5.18;;;5.07;;
26820;SDS011;37186;51.394;5.454;2023-06-14T01:29:57;4.90;;;4.80;;
26820;SDS011;37186;51.394;5.454;2023-06-14T01:32:59;4.63;;;4.53;;
26820;SDS011;37186;51.394;5.454;2023-06-14T01:36:00;4.38;;;4.28;;
26820;SDS011;37186;51.394;5.454;2023-06-14T01:39:02;4.63;;;4.53;;
26820;SDS011;37186;51.394;5.454;2023-06-14T01:42:05;4.05;;;3.95;;
26820;SDS011;37186;51.394;5.454;2023-06-14T01:45:07;3.72;;;3.63;;
26820;SDS011;37186;51.394;5.454;2023-06-14T01:48:09;3.35;;;3.25;;
26820;SDS011;37186;51.394;5.454;2023-06-14T01:51:10;3.35;;;3.25;;
26820;SDS011;37186;51.394;5.454;2023-06-14T01:54:10;3.08;;;2.97;;
26820;SDS011;37186;51.394;5.454;2023-06-14T01:57:11;3.13;;;3.03;;
26820;SDS011;37186;51.394;5.454;2023-06-14T02:00:12;2.85;;;2.78;;
26820;SDS011;37186;51.394;5.454;2023-06-14T02:03:14;2.97;;;2.88;;
26820;SDS011;37186;51.394;5.454;2023-06-14T02:06:15;3.00;;;2.90;;
26820;SDS011;37186;51.394;5.454;2023-06-14T02:09:18;3.10;;;3.00;;
26820;SDS011;37186;51.394;5.454;2023-06-14T02:12:19;3.10;;;3.00;;
26820;SDS011;37186;51.394;5.454;2023-06-14T02:15:20;3.10;;;3.00;;
26820;SDS011;37186;51.394;5.454;2023-06-14T02:18:22;3.00;;;2.90;;
26820;SDS011;37186;51.394;5.454;2023-06-14T02:21:23;3.35;;;3.25;;
26820;SDS011;37186;51.394;5.454;2023-06-14T02:24:23;3.28;;;3.17;;
26820;SDS011;37186;51.394;5.454;2023-06-14T02:27:24;3.53;;;3.42;;
26820;SDS011;37186;51.394;5.454;2023-06-14T02:30:25;3.60;;;3.50;;
26820;SDS011;37186;51.394;5.454;2023-06-14T02:33:25;3.33;;;3.22;;
26820;SDS011;37186;51.394;5.454;2023-06-14T02:36:26;3.45;;;3.35;;
26820;SDS011;37186;51.394;5.454;2023-06-14T02:39:27;3.50;;;3.40;;
26820;SDS011;37186;51.394;5.454;2023-06-14T02:42:28;3.30;;;3.20;;
26820;SDS011;37186;51.394;5.454;2023-06-14T02:45:28;3.83;;;3.72;;
26820;SDS011;37186;51.394;5.454;2023-06-14T02:48:29;3.95;;;3.85;;
26820;SDS011;37186;51.394;5.454;2023-06-14T02:51:30;3.92;;;3.83;;
26820;SDS011;37186;51.394;5.454;2023-06-14T02:54:30;3.72;;;3.63;;
26820;SDS011;37186;51.394;5.454;2023-06-14T02:57:31;4.20;;;4.10;;
26820;SDS011;37186;51.394;5.454;2023-06-14T03:00:31;4.30;;;4.20;;
26820;SDS011;37186;51.394;5.454;2023-06-14T03:03:32;3.92;;;3.83;;
26820;SDS011;37186;51.394;5.454;2023-06-14T03:06:33;3.90;;;3.80;;
26820;SDS011;37186;51.394;5.454;2023-06-14T03:09:33;4.07;;;3.97;;
26820;SDS011;37186;51.394;5.454;2023-06-14T03:12:37;4.00;;;3.90;;
26820;SDS011;37186;51.394;5.454;2023-06-14T03:15:38;3.90;;;3.80;;
26820;SDS011;37186;51.394;5.454;2023-06-14T03:18:38;3.95;;;3.85;;
26820;SDS011;37186;51.394;5.454;2023-06-14T03:21:39;4.00;;;3.90;;
26820;SDS011;37186;51.394;5.454;2023-06-14T03:24:44;4.03;;;3.92;;
26820;SDS011;37186;51.394;5.454;2023-06-14T03:27:44;3.53;;;3.42;;
26820;SDS011;37186;51.394;5.454;2023-06-14T03:30:45;3.80;;;3.70;;
26820;SDS011;37186;51.394;5.454;2023-06-14T03:33:45;3.70;;;3.60;;
26820;SDS011;37186;51.394;5.454;2023-06-14T03:36:46;3.70;;;3.60;;
26820;SDS011;37186;51.394;5.454;2023-06-14T03:39:46;3.97;;;3.88;;
26820;SDS011;37186;51.394;5.454;2023-06-14T03:42:47;3.90;;;3.80;;
26820;SDS011;37186;51.394;5.454;2023-06-14T03:45:48;4.30;;;4.20;;
26820;SDS011;37186;51.394;5.454;2023-06-14T03:48:48;4.05;;;3.95;;
26820;SDS011;37186;51.394;5.454;2023-06-14T03:51:49;4.13;;;4.03;;
26820;SDS011;37186;51.394;5.454;2023-06-14T03:54:51;4.45;;;4.35;;
26820;SDS011;37186;51.394;5.454;2023-06-14T03:57:51;4.57;;;4.47;;
26820;SDS011;37186;51.394;5.454;2023-06-14T04:00:52;4.53;;;4.43;;
26820;SDS011;37186;51.394;5.454;2023-06-14T04:03:52;4.80;;;4.70;;
26820;SDS011;37186;51.394;5.454;2023-06-14T04:06:53;4.50;;;4.40;;
26820;SDS011;37186;51.394;5.454;2023-06-14T04:09:55;4.90;;;4.80;;
26820;SDS011;37186;51.394;5.454;2023-06-14T04:12:55;4.75;;;4.65;;
26820;SDS011;37186;51.394;5.454;2023-06-14T04:15:56;5.15;;;5.05;;
26820;SDS011;37186;51.394;5.454;2023-06-14T04:18:57;5.20;;;5.10;;
26820;SDS011;37186;51.394;5.454;2023-06-14T04:21:58;5.40;;;5.30;;
26820;SDS011;37186;51.394;5.454;2023-06-14T04:25:01;5.32;;;5.22;;
26820;SDS011;37186;51.394;5.454;2023-06-14T04:28:02;5.25;;;5.15;;
26820;SDS011;37186;51.394;5.454;2023-06-14T04:31:03;4.93;;;4.82;;
26820;SDS011;37186;51.394;5.454;2023-06-14T04:34:04;5.30;;;5.20;;
26820;SDS011;37186;51.394;5.454;2023-06-14T04:37:05;5.20;;;5.10;;
26820;SDS011;37186;51.394;5.454;2023-06-14T04:40:07;5.13;;;5.03;;
26820;SDS011;37186;51.394;5.454;2023-06-14T04:43:09;5.10;;;5.00;;
26820;SDS011;37186;51.394;5.454;2023-06-14T04:46:12;4.97;;;4.88;;
26820;SDS011;37186;51.394;5.454;2023-06-14T04:49:14;4.93;;;4.82;;
26820;SDS011;37186;51.394;5.454;2023-06-14T04:52:15;4.97;;;4.88;;
26820;SDS011;37186;51.394;5.454;2023-06-14T04:55:17;4.93;;;4.82;;
26820;SDS011;37186;51.394;5.454;2023-06-14T04:58:19;4.90;;;4.80;;
26820;SDS011;37186;51.394;5.454;2023-06-14T05:01:20;4.93;;;4.82;;
26820;SDS011;37186;51.394;5.454;2023-06-14T05:04:23;4.80;;;4.70;;
26820;SDS011;37186;51.394;5.454;2023-06-14T05:07:23;5.20;;;5.10;;
26820;SDS011;37186;51.394;5.454;2023-06-14T05:10:24;5.40;;;5.30;;
26820;SDS011;37186;51.394;5.454;2023-06-14T05:13:25;5.15;;;5.05;;
26820;SDS011;37186;51.394;5.454;2023-06-14T05:16:28;4.95;;;4.85;;
26820;SDS011;37186;51.394;5.454;2023-06-14T05:19:29;5.10;;;5.00;;
26820;SDS011;37186;51.394;5.454;2023-06-14T05:22:29;4.75;;;4.65;;
26820;SDS011;37186;51.394;5.454;2023-06-14T05:25:30;5.30;;;5.20;;
26820;SDS011;37186;51.394;5.454;2023-06-14T05:28:30;5.00;;;4.90;;
26820;SDS011;37186;51.394;5.454;2023-06-14T05:31:31;5.15;;;5.05;;
26820;SDS011;37186;51.394;5.454;2023-06-14T05:34:32;5.03;;;4.93;;
26820;SDS011;37186;51.394;5.454;2023-06-14T05:37:33;5.22;;;5.13;;
26820;SDS011;37186;51.394;5.454;2023-06-14T05:40:33;5.38;;;5.28;;
26820;SDS011;37186;51.394;5.454;2023-06-14T05:43:34;5.25;;;5.15;;
26820;SDS011;37186;51.394;5.454;2023-06-14T05:46:34;5.40;;;5.30;;
26820;SDS011;37186;51.394;5.454;2023-06-14T05:49:35;5.57;;;5.47;;
26820;SDS011;37186;51.394;5.454;2023-06-14T05:52:36;5.40;;;5.30;;
26820;SDS011;37186;51.394;5.454;2023-06-14T05:55:36;5.45;;;5.35;;
26820;SDS011;37186;51.394;5.454;2023-06-14T05:58:37;5.93;;;5.72;;
26820;SDS011;37186;51.394;5.454;2023-06-14T06:01:38;5.47;;;5.38;;
26820;SDS011;37186;51.394;5.454;2023-06-14T06:04:40;5.65;;;5.55;;
26820;SDS011;37186;51.394;5.454;2023-06-14T06:07:40;6.15;;;5.95;;
26820;SDS011;37186;51.394;5.454;2023-06-14T06:10:41;5.72;;;5.60;;
26820;SDS011;37186;51.394;5.454;2023-06-14T06:13:42;5.85;;;5.65;;
26820;SDS011;37186;51.394;5.454;2023-06-14T06:16:42;5.68;;;5.55;;
26820;SDS011;37186;51.394;5.454;2023-06-14T06:19:43;5.63;;;5.53;;
26820;SDS011;37186;51.394;5.454;2023-06-14T06:22:44;6.22;;;6.03;;
26820;SDS011;37186;51.394;5.454;2023-06-14T06:25:44;6.15;;;5.95;;
26820;SDS011;37186;51.394;5.454;2023-06-14T06:28:45;6.13;;;5.93;;
26820;SDS011;37186;51.394;5.454;2023-06-14T06:31:45;5.95;;;5.75;;
26820;SDS011;37186;51.394;5.454;2023-06-14T06:34:46;5.82;;;5.68;;
26820;SDS011;37186;51.394;5.454;2023-06-14T06:37:46;5.53;;;5.43;;
26820;SDS011;37186;51.394;5.454;2023-06-14T06:40:47;5.30;;;5.20;;
26820;SDS011;37186;51.394;5.454;2023-06-14T06:43:48;5.10;;;5.00;;
26820;SDS011;37186;51.394;5.454;2023-06-14T06:46:48;5.13;;;5.03;;
26820;SDS011;37186;51.394;5.454;2023-06-14T06:49:49;5.15;;;5.05;;
26820;SDS011;37186;51.394;5.454;2023-06-14T06:52:49;5.05;;;4.95;;
26820;SDS011;37186;51.394;5.454;2023-06-14T06:55:50;4.75;;;4.65;;
26820;SDS011;37186;51.394;5.454;2023-06-14T06:58:50;4.95;;;4.85;;
26820;SDS011;37186;51.394;5.454;2023-06-14T07:01:51;4.85;;;4.75;;
26820;SDS011;37186;51.394;5.454;2023-06-14T07:04:51;4.80;;;4.70;;
26820;SDS011;37186;51.394;5.454;2023-06-14T07:07:52;4.85;;;4.75;;
26820;SDS011;37186;51.394;5.454;2023-06-14T07:10:53;4.72;;;4.63;;
26820;SDS011;37186;51.394;5.454;2023-06-14T07:13:53;4.82;;;4.72;;
26820;SDS011;37186;51.394;5.454;2023-06-14T07:16:54;5.15;;;5.05;;
26820;SDS011;37186;51.394;5.454;2023-06-14T07:19:54;5.20;;;5.10;;
26820;SDS011;37186;51.394;5.454;2023-06-14T07:22:55;5.10;;;5.00;;
26820;SDS011;37186;51.394;5.454;2023-06-14T07:25:55;5.40;;;5.30;;
26820;SDS011;37186;51.394;5.454;2023-06-14T07:28:56;4.97;;;4.88;;
26820;SDS011;37186;51.394;5.454;2023-06-14T07:31:56;4.63;;;4.53;;
26820;SDS011;37186;51.394;5.454;2023-06-14T07:34:57;4.88;;;4.78;;
26820;SDS011;37186;51.394;5.454;2023-06-14T07:37:57;5.13;;;5.03;;
26820;SDS011;37186;51.394;5.454;2023-06-14T07:40:58;5.05;;;4.95;;
26820;SDS011;37186;51.394;5.454;2023-06-14T07:43:58;4.97;;;4.88;;
26820;SDS011;37186;51.394;5.454;2023-06-14T07:46:59;4.97;;;4.88;;
26820;SDS011;37186;51.394;5.454;2023-06-14T07:50:00;4.82;;;4.72;;
26820;SDS011;37186;51.394;5.454;2023-06-14T07:53:00;4.75;;;4.65;;
26820;SDS011;37186;51.394;5.454;2023-06-14T07:56:01;4.72;;;4.63;;
26820;SDS011;37186;51.394;5.454;2023-06-14T07:59:02;4.90;;;4.80;;
26820;SDS011;37186;51.394;5.454;2023-06-14T08:02:03;4.85;;;4.75;;
26820;SDS011;37186;51.394;5.454;2023-06-14T08:05:04;4.35;;;4.25;;
26820;SDS011;37186;51.394;5.454;2023-06-14T08:08:05;4.82;;;4.72;;
26820;SDS011;37186;51.394;5.454;2023-06-14T08:11:05;4.70;;;4.60;;
26820;SDS011;37186;51.394;5.454;2023-06-14T08:14:06;4.60;;;4.50;;
26820;SDS011;37186;51.394;5.454;2023-06-14T08:17:08;4.32;;;4.22;;
26820;SDS011;37186;51.394;5.454;2023-06-14T08:20:09;4.22;;;4.13;;
26820;SDS011;37186;51.394;5.454;2023-06-14T08:23:10;3.90;;;3.80;;
26820;SDS011;37186;51.394;5.454;2023-06-14T08:26:11;4.22;;;4.13;;
26820;SDS011;37186;51.394;5.454;2023-06-14T08:29:12;4.00;;;3.90;;
26820;SDS011;37186;51.394;5.454;2023-06-14T08:32:12;4.00;;;3.90;;
26820;SDS011;37186;51.394;5.454;2023-06-14T08:35:13;3.92;;;3.83;;
26820;SDS011;37186;51.394;5.454;2023-06-14T08:38:13;4.00;;;3.90;;
26820;SDS011;37186;51.394;5.454;2023-06-14T08:41:14;4.10;;;4.00;;
26820;SDS011;37186;51.394;5.454;2023-06-14T08:44:21;3.80;;;3.70;;
26820;SDS011;37186;51.394;5.454;2023-06-14T08:47:21;3.97;;;3.88;;
26820;SDS011;37186;51.394;5.454;2023-06-14T08:50:26;4.00;;;3.90;;
26820;SDS011;37186;51.394;5.454;2023-06-14T08:53:32;3.92;;;3.83;;
26820;SDS011;37186;51.394;5.454;2023-06-14T08:56:33;4.07;;;3.97;;
26820;SDS011;37186;51.394;5.454;2023-06-14T08:59:34;3.85;;;3.75;;
26820;SDS011;37186;51.394;5.454;2023-06-14T09:02:39;3.88;;;3.78;;
26820;SDS011;37186;51.394;5.454;2023-06-14T09:05:43;3.47;;;3.38;;
26820;SDS011;37186;51.394;5.454;2023-06-14T09:08:46;3.47;;;3.38;;
26820;SDS011;37186;51.394;5.454;2023-06-14T09:11:51;3.28;;;3.17;;
26820;SDS011;37186;51.394;5.454;2023-06-14T09:14:52;3.00;;;2.90;;
26820;SDS011;37186;51.394;5.454;2023-06-14T09:17:52;2.92;;;2.83;;
26820;SDS011;37186;51.394;5.454;2023-06-14T09:20:53;2.67;;;2.65;;
26820;SDS011;37186;51.394;5.454;2023-06-14T09:23:54;2.60;;;2.60;;
26820;SDS011;37186;51.394;5.454;2023-06-14T09:26:55;2.80;;;2.70;;
26820;SDS011;37186;51.394;5.454;2023-06-14T09:29:57;2.58;;;2.58;;
26820;SDS011;37186;51.394;5.454;2023-06-14T09:32:57;2.50;;;2.50;;
26820;SDS011;37186;51.394;5.454;2023-06-14T09:35:59;2.50;;;2.50;;
26820;SDS011;37186;51.394;5.454;2023-06-14T09:39:00;2.50;;;2.50;;
26820;SDS011;37186;51.394;5.454;2023-06-14T09:42:08;2.50;;;2.50;;
26820;SDS011;37186;51.394;5.454;2023-06-14T09:45:18;2.50;;;2.50;;
26820;SDS011;37186;51.394;5.454;2023-06-14T09:48:22;2.50;;;2.50;;
26820;SDS011;37186;51.394;5.454;2023-06-14T09:51:22;2.40;;;2.40;;
26820;SDS011;37186;51.394;5.454;2023-06-14T09:54:24;2.65;;;2.65;;
26820;SDS011;37186;51.394;5.454;2023-06-14T09:57:27;2.45;;;2.45;;
26820;SDS011;37186;51.394;5.454;2023-06-14T10:00:32;2.78;;;2.67;;
26820;SDS011;37186;51.394;5.454;2023-06-14T10:03:34;2.53;;;2.53;;
26820;SDS011;37186;51.394;5.454;2023-06-14T10:06:37;2.53;;;2.53;;
26820;SDS011;37186;51.394;5.454;2023-06-14T10:09:40;2.90;;;2.80;;
26820;SDS011;37186;51.394;5.454;2023-06-14T10:12:44;3.00;;;2.90;;
26820;SDS011;37186;51.394;5.454;2023-06-14T10:15:51;3.30;;;3.20;;
26820;SDS011;37186;51.394;5.454;2023-06-14T10:19:00;3.05;;;2.95;;
26820;SDS011;37186;51.394;5.454;2023-06-14T10:25:12;3.25;;;3.15;;
26820;SDS011;37186;51.394;5.454;2023-06-14T10:28:25;3.47;;;3.38;;
26820;SDS011;37186;51.394;5.454;2023-06-14T10:35:00;3.47;;;3.38;;
26820;SDS011;37186;51.394;5.454;2023-06-14T10:38:07;3.63;;;3.53;;
26820;SDS011;37186;51.394;5.454;2023-06-14T10:41:08;3.63;;;3.53;;
26820;SDS011;37186;51.394;5.454;2023-06-14T10:47:23;4.30;;;4.20;;
26820;SDS011;37186;51.394;5.454;2023-06-14T10:50:28;4.45;;;4.35;;
26820;SDS011;37186;51.394;5.454;2023-06-14T10:53:39;4.05;;;3.95;;
26820;SDS011;37186;51.394;5.454;2023-06-14T10:56:47;4.43;;;4.32;;
26820;SDS011;37186;51.394;5.454;2023-06-14T10:59:51;4.50;;;4.40;;
26820;SDS011;37186;51.394;5.454;2023-06-14T11:06:28;4.88;;;4.78;;
26820;SDS011;37186;51.394;5.454;2023-06-14T11:10:05;4.78;;;4.68;;
26820;SDS011;37186;51.394;5.454;2023-06-14T11:13:17;4.80;;;4.70;;
26820;SDS011;37186;51.394;5.454;2023-06-14T11:16:17;3.78;;;3.67;;
26820;SDS011;37186;51.394;5.454;2023-06-14T11:19:19;3.47;;;3.38;;
26820;SDS011;37186;51.394;5.454;2023-06-14T11:22:19;6.63;;;6.43;;
26820;SDS011;37186;51.394;5.454;2023-06-14T11:25:20;30.10;;;28.90;;
26820;SDS011;37186;51.394;5.454;2023-06-14T11:28:21;32.40;;;31.10;;
26820;SDS011;37186;51.394;5.454;2023-06-14T11:31:23;34.00;;;32.70;;
26820;SDS011;37186;51.394;5.454;2023-06-14T11:34:24;36.60;;;35.20;;
26820;SDS011;37186;51.394;5.454;2023-06-14T11:37:26;58.75;;;56.33;;
26820;SDS011;37186;51.394;5.454;2023-06-14T11:40:28;63.65;;;61.05;;
26820;SDS011;37186;51.394;5.454;2023-06-14T11:43:29;64.50;;;61.90;;
26820;SDS011;37186;51.394;5.454;2023-06-14T11:46:31;65.78;;;63.15;;
26820;SDS011;37186;51.394;5.454;2023-06-14T11:49:36;62.38;;;59.88;;
26820;SDS011;37186;51.394;5.454;2023-06-14T11:52:36;64.03;;;61.42;;
26820;SDS011;37186;51.394;5.454;2023-06-14T11:55:38;65.85;;;63.22;;
26820;SDS011;37186;51.394;5.454;2023-06-14T11:58:39;64.28;;;61.70;;
26820;SDS011;37186;51.394;5.454;2023-06-14T12:01:42;63.22;;;60.72;;
26820;SDS011;37186;51.394;5.454;2023-06-14T12:04:43;62.13;;;59.67;;
26820;SDS011;37186;51.394;5.454;2023-06-14T12:07:46;60.35;;;58.00;;
26820;SDS011;37186;51.394;5.454;2023-06-14T12:10:50;58.50;;;56.25;;
26820;SDS011;37186;51.394;5.454;2023-06-14T12:13:51;53.95;;;51.90;;
26820;SDS011;37186;51.394;5.454;2023-06-14T12:16:52;57.88;;;55.65;;
26820;SDS011;37186;51.394;5.454;2023-06-14T12:20:10;54.72;;;52.65;;
26820;SDS011;37186;51.394;5.454;2023-06-14T12:23:13;53.33;;;51.30;;
26820;SDS011;37186;51.394;5.454;2023-06-14T12:26:15;51.03;;;49.13;;
26820;SDS011;37186;51.394;5.454;2023-06-14T12:29:16;49.65;;;47.85;;
26820;SDS011;37186;51.394;5.454;2023-06-14T12:32:19;42.70;;;41.15;;
26820;SDS011;37186;51.394;5.454;2023-06-14T12:35:20;37.92;;;36.60;;
26820;SDS011;37186;51.394;5.454;2023-06-14T12:38:21;40.95;;;39.50;;
26820;SDS011;37186;51.394;5.454;2023-06-14T12:41:21;44.38;;;42.78;;
26820;SDS011;37186;51.394;5.454;2023-06-14T12:44:22;41.72;;;40.22;;
26820;SDS011;37186;51.394;5.454;2023-06-14T12:47:23;36.72;;;35.42;;
26820;SDS011;37186;51.394;5.454;2023-06-14T12:50:23;37.35;;;36.05;;
26820;SDS011;37186;51.394;5.454;2023-06-14T12:53:24;34.28;;;33.08;;
26820;SDS011;37186;51.394;5.454;2023-06-14T12:56:24;32.10;;;31.00;;
26820;SDS011;37186;51.394;5.454;2023-06-14T12:59:26;30.08;;;29.08;;
26820;SDS011;37186;51.394;5.454;2023-06-14T13:02:32;27.80;;;26.90;;
26820;SDS011;37186;51.394;5.454;2023-06-14T13:05:33;24.83;;;24.02;;
26820;SDS011;37186;51.394;5.454;2023-06-14T13:08:33;21.73;;;21.02;;
26820;SDS011;37186;51.394;5.454;2023-06-14T13:11:34;20.70;;;20.00;;
26820;SDS011;37186;51.394;5.454;2023-06-14T13:14:35;19.58;;;18.98;;
26820;SDS011;37186;51.394;5.454;2023-06-14T13:17:35;17.40;;;16.90;;
26820;SDS011;37186;51.394;5.454;2023-06-14T13:20:38;18.63;;;18.02;;
26820;SDS011;37186;51.394;5.454;2023-06-14T13:23:39;18.35;;;17.75;;
26820;SDS011;37186;51.394;5.454;2023-06-14T13:26:40;16.23;;;15.73;;
26820;SDS011;37186;51.394;5.454;2023-06-14T13:29:40;20.48;;;19.83;;
26820;SDS011;37186;51.394;5.454;2023-06-14T13:32:41;20.63;;;19.95;;
26820;SDS011;37186;51.394;5.454;2023-06-14T13:35:42;24.50;;;23.67;;
26820;SDS011;37186;51.394;5.454;2023-06-14T13:38:42;25.42;;;24.58;;
26820;SDS011;37186;51.394;5.454;2023-06-14T13:41:43;25.38;;;24.52;;
26820;SDS011;37186;51.394;5.454;2023-06-14T13:44:44;28.38;;;27.40;;
26820;SDS011;37186;51.394;5.454;2023-06-14T13:47:44;28.63;;;27.65;;
26820;SDS011;37186;51.394;5.454;2023-06-14T13:50:48;26.50;;;25.60;;
26820;SDS011;37186;51.394;5.454;2023-06-14T13:53:49;23.10;;;22.33;;
26820;SDS011;37186;51.394;5.454;2023-06-14T13:56:50;25.30;;;24.50;;
26820;SDS011;37186;51.394;5.454;2023-06-14T13:59:51;24.48;;;23.67;;
26820;SDS011;37186;51.394;5.454;2023-06-14T14:02:53;22.10;;;21.40;;
26820;SDS011;37186;51.394;5.454;2023-06-14T14:05:54;22.83;;;22.08;;
26820;SDS011;37186;51.394;5.454;2023-06-14T14:08:55;23.52;;;22.73;;
26820;SDS011;37186;51.394;5.454;2023-06-14T14:11:55;23.98;;;23.17;;
26820;SDS011;37186;51.394;5.454;2023-06-14T14:14:56;27.90;;;27.00;;
26820;SDS011;37186;51.394;5.454;2023-06-14T14:17:57;27.38;;;26.48;;
26820;SDS011;37186;51.394;5.454;2023-06-14T14:20:58;31.52;;;30.42;;
26820;SDS011;37186;51.394;5.454;2023-06-14T14:23:58;40.00;;;38.58;;
26820;SDS011;37186;51.394;5.454;2023-06-14T14:26:59;41.47;;;40.00;;
26820;SDS011;37186;51.394;5.454;2023-06-14T14:30:00;42.00;;;40.50;;
26820;SDS011;37186;51.394;5.454;2023-06-14T14:33:00;45.33;;;43.67;;
26820;SDS011;37186;51.394;5.454;2023-06-14T14:36:01;44.85;;;43.25;;
26820;SDS011;37186;51.394;5.454;2023-06-14T14:39:04;52.95;;;51.00;;
26820;SDS011;37186;51.394;5.454;2023-06-14T14:42:04;54.97;;;52.92;;
26820;SDS011;37186;51.394;5.454;2023-06-14T14:45:05;72.57;;;69.75;;
26820;SDS011;37186;51.394;5.454;2023-06-14T14:48:06;70.13;;;67.47;;
26820;SDS011;37186;51.394;5.454;2023-06-14T14:51:07;79.72;;;76.60;;
26820;SDS011;37186;51.394;5.454;2023-06-14T14:54:07;89.38;;;85.75;;
26820;SDS011;37186;51.394;5.454;2023-06-14T14:57:08;90.05;;;86.43;;
26820;SDS011;37186;51.394;5.454;2023-06-14T15:00:09;94.85;;;90.95;;
26820;SDS011;37186;51.394;5.454;2023-06-14T15:03:09;84.63;;;81.28;;
26820;SDS011;37186;51.394;5.454;2023-06-14T15:06:10;90.65;;;87.00;;
26820;SDS011;37186;51.394;5.454;2023-06-14T15:09:11;87.18;;;83.65;;
26820;SDS011;37186;51.394;5.454;2023-06-14T15:12:11;86.18;;;82.68;;
26820;SDS011;37186;51.394;5.454;2023-06-14T15:15:12;82.80;;;79.55;;
26820;SDS011;37186;51.394;5.454;2023-06-14T15:18:12;83.85;;;80.57;;
26820;SDS011;37186;51.394;5.454;2023-06-14T15:21:14;76.53;;;73.63;;
26820;SDS011;37186;51.394;5.454;2023-06-14T15:24:14;72.88;;;70.15;;
26820;SDS011;37186;51.394;5.454;2023-06-14T15:27:15;54.28;;;52.30;;
26820;SDS011;37186;51.394;5.454;2023-06-14T15:30:15;59.20;;;57.00;;
26820;SDS011;37186;51.394;5.454;2023-06-14T15:33:16;70.00;;;67.35;;
26820;SDS011;37186;51.394;5.454;2023-06-14T15:36:16;55.78;;;53.67;;
26820;SDS011;37186;51.394;5.454;2023-06-14T15:39:17;52.35;;;50.38;;
26820;SDS011;37186;51.394;5.454;2023-06-14T15:42:17;60.83;;;58.40;;
26820;SDS011;37186;51.394;5.454;2023-06-14T15:45:18;66.38;;;63.75;;
26820;SDS011;37186;51.394;5.454;2023-06-14T15:48:18;71.75;;;68.97;;
26820;SDS011;37186;51.394;5.454;2023-06-14T15:51:19;80.18;;;76.97;;
26820;SDS011;37186;51.394;5.454;2023-06-14T15:54:19;85.18;;;81.80;;
26820;SDS011;37186;51.394;5.454;2023-06-14T15:57:20;87.22;;;83.70;;
26820;SDS011;37186;51.394;5.454;2023-06-14T16:00:21;85.15;;;81.63;;
26820;SDS011;37186;51.394;5.454;2023-06-14T16:03:22;80.00;;;76.78;;
26820;SDS011;37186;51.394;5.454;2023-06-14T16:06:22;90.20;;;86.65;;
26820;SDS011;37186;51.394;5.454;2023-06-14T16:09:23;95.32;;;91.53;;
26820;SDS011;37186;51.394;5.454;2023-06-14T16:12:23;141.43;;;135.40;;
26820;SDS011;37186;51.394;5.454;2023-06-14T16:15:24;120.97;;;115.95;;
26820;SDS011;37186;51.394;5.454;2023-06-14T16:18:24;117.18;;;112.43;;
26820;SDS011;37186;51.394;5.454;2023-06-14T16:21:25;111.90;;;107.32;;
26820;SDS011;37186;51.394;5.454;2023-06-14T16:24:26;103.40;;;99.03;;
26820;SDS011;37186;51.394;5.454;2023-06-14T16:27:27;107.32;;;102.68;;
26820;SDS011;37186;51.394;5.454;2023-06-14T16:30:27;111.13;;;106.13;;
26820;SDS011;37186;51.394;5.454;2023-06-14T16:33:28;89.20;;;85.60;;
26820;SDS011;37186;51.394;5.454;2023-06-14T16:36:28;105.45;;;100.70;;
26820;SDS011;37186;51.394;5.454;2023-06-14T16:39:29;84.50;;;81.15;;
26820;SDS011;37186;51.394;5.454;2023-06-14T16:42:29;69.07;;;66.47;;
26820;SDS011;37186;51.394;5.454;2023-06-14T16:45:31;64.30;;;61.88;;
26820;SDS011;37186;51.394;5.454;2023-06-14T16:48:31;60.55;;;58.25;;
26820;SDS011;37186;51.394;5.454;2023-06-14T16:51:32;57.33;;;55.17;;
26820;SDS011;37186;51.394;5.454;2023-06-14T16:54:33;60.83;;;58.47;;
26820;SDS011;37186;51.394;5.454;2023-06-14T16:57:33;56.45;;;54.33;;
26820;SDS011;37186;51.394;5.454;2023-06-14T17:00:34;56.75;;;54.63;;
26820;SDS011;37186;51.394;5.454;2023-06-14T17:03:34;62.47;;;60.05;;
26820;SDS011;37186;51.394;5.454;2023-06-14T17:06:35;99.40;;;95.15;;
26820;SDS011;37186;51.394;5.454;2023-06-14T17:09:36;100.28;;;95.88;;
26820;SDS011;37186;51.394;5.454;2023-06-14T17:12:37;109.35;;;104.53;;
26820;SDS011;37186;51.394;5.454;2023-06-14T17:15:37;115.30;;;110.35;;
26820;SDS011;37186;51.394;5.454;2023-06-14T17:18:38;65.93;;;63.33;;
26820;SDS011;37186;51.394;5.454;2023-06-14T17:21:39;57.13;;;55.00;;
26820;SDS011;37186;51.394;5.454;2023-06-14T17:24:42;58.42;;;56.25;;
26820;SDS011;37186;51.394;5.454;2023-06-14T17:27:42;64.47;;;61.95;;
26820;SDS011;37186;51.394;5.454;2023-06-14T17:30:43;71.88;;;69.13;;
26820;SDS011;37186;51.394;5.454;2023-06-14T17:33:43;81.97;;;78.80;;
26820;SDS011;37186;51.394;5.454;2023-06-14T17:36:44;106.18;;;101.93;;
26820;SDS011;37186;51.394;5.454;2023-06-14T17:39:45;123.88;;;118.82;;
26820;SDS011;37186;51.394;5.454;2023-06-14T17:42:45;120.03;;;115.35;;
26820;SDS011;37186;51.394;5.454;2023-06-14T17:45:46;142.82;;;137.07;;
26820;SDS011;37186;51.394;5.454;2023-06-14T17:48:46;153.95;;;147.57;;
26820;SDS011;37186;51.394;5.454;2023-06-14T17:51:47;169.38;;;162.25;;
26820;SDS011;37186;51.394;5.454;2023-06-14T17:54:47;157.98;;;151.27;;
26820;SDS011;37186;51.394;5.454;2023-06-14T17:57:48;130.75;;;125.35;;
26820;SDS011;37186;51.394;5.454;2023-06-14T18:00:49;124.07;;;118.97;;
26820;SDS011;37186;51.394;5.454;2023-06-14T18:03:50;127.93;;;122.70;;
26820;SDS011;37186;51.394;5.454;2023-06-14T18:06:51;115.57;;;110.95;;
26820;SDS011;37186;51.394;5.454;2023-06-14T18:09:51;119.75;;;114.90;;
26820;SDS011;37186;51.394;5.454;2023-06-14T18:12:52;134.73;;;129.32;;